KOMH

Orange County Airport

Orange, Virginia, USA
METAR KOMH 191055Z AUTO 00000KT 7SM CLR 17/17 A2991 RMK AO2
Observed Flight Rules
Sep-19 @ 10:55 UTC (20 minutes ago) Visual Flight Rules
Visibility Clouds
7 miles
  • Clear skies
Temperatures Readings
Current 17°C / 63°F
Dewpoint 17°C / 63°F
Humidity 100%
Altimeter 29.91" Hg
Pressure 1013 hPa
Elevation 142
METAR KOMH 191055Z AUTO 00000KT 7SM CLR 17/17 A2991 RMK AO2
Observed Flight Rules
Sep-19 @ 10:55 UTC
(20 minutes ago)
VFR
Clouds
  • Clear skies
Temperature Dewpoint
17°C / 63°F 17°C / 63°F
Humidity Altimeter Pressure
100% 29.91" Hg 1013 hPa